• Join FlightAware (Why Join?)
  • Login
  • US Flag 
08:52PM EDT


 

Airport Tracker/Info


-or-


 

Live Flight TrackerFlight Track Log ✈ OPT710 ✈ 06-Sep-2013 ✈ KLAL - KSLC

Flight Track Log - Related Links

Times and Time Zones

All times are in EDT time to prevent confusion due to time zone crossing. See the OPT710 flight status page for this flight to view local times or setup timezone preferences in your user account.

Time Position Orientation Groundspeed Altitude Reporting Facility
EDT Latitude Longitude Course Direction KTS MPH feet Rate Location/Type
01:38PM 27.9833 -82.0000 41° Northeast 199 229 600  Level Tampa TRACON
01:39PM 28.0000 -81.9833 41° Northeast 215 247 1,600 1,920 Climbing Tampa TRACON
01:40PM 28.0667 -81.9833 360° North 281 323 3,500 2,400 Climbing Tampa TRACON
01:41PM 28.0911 -82.1092 282° West 280 322 7,800 2,880 Climbing Jacksonville Center
01:42PM 28.1250 -82.1819 298° West 271 312 10,800 2,340 Climbing Jacksonville Center
01:43PM 28.1961 -82.2331 328° Northwest 271 312 12,600 1,740 Climbing Jacksonville Center
01:44PM 28.2717 -82.2869 328° Northwest 296 341 14,300 1,680 Climbing Jacksonville Center
01:45PM 28.3469 -82.3431 327° Northwest 319 367 16,000 1,680 Climbing Jacksonville Center
01:46PM 28.4286 -82.3992 329° Northwest 330 380 17,700 1,620 Climbing Jacksonville Center
01:47PM 28.5103 -82.4578 328° Northwest 340 391 19,300 1,620 Climbing Jacksonville Center
01:48PM 28.5939 -82.5167 328° Northwest 346 398 21,000 1,680 Climbing Jacksonville Center
01:49PM 28.6775 -82.5778 327° Northwest 346 398 22,700 1,680 Climbing Jacksonville Center
01:50PM 28.7592 -82.6319 330° Northwest 346 398 24,400 1,680 Climbing Jacksonville Center
01:51PM 28.8344 -82.7125 317° Northwest 351 404 26,100 1,560 Climbing Jacksonville Center
01:52PM 28.9053 -82.8000 313° West 361 415 27,600 1,500 Climbing Jacksonville Center
01:53PM 28.9764 -82.8903 312° West 376 433 29,100 1,440 Climbing Jacksonville Center
01:54PM 29.0494 -82.9828 312° West 387 445 30,500 1,320 Climbing Jacksonville Center
01:55PM 29.1244 -83.0781 312° West 387 445 31,800 1,200 Climbing Jacksonville Center
01:56PM 29.2097 -83.1828 313° West 399 459 33,000 1,200 Climbing Jacksonville Center
01:57PM 29.2911 -83.2806 314° West 414 476 34,200 1,200 Climbing Jacksonville Center
01:58PM 29.3761 -83.3836 313° West 426 490 35,400 1,200 Climbing Jacksonville Center
01:59PM 29.4781 -83.4675 324° Northwest 436 502 36,600 1,260 Climbing Jacksonville Center
02:00PM 29.5822 -83.5469 326° Northwest 447 514 38,000 1,200 Climbing Jacksonville Center
02:01PM 29.6861 -83.6289 326° Northwest 452 520 39,000 960 Climbing Jacksonville Center
02:02PM 29.7919 -83.7086 327° Northwest 452 520 40,000 960 Climbing Jacksonville Center
02:03PM 29.8958 -83.7911 325° Northwest 452 520 41,000 960 Climbing Jacksonville Center
02:04PM 29.9975 -83.8711 326° Northwest 452 520 42,000 960 Climbing Jacksonville Center
02:05PM 30.1014 -83.9489 327° Northwest 452 520 43,000 480 Climbing Jacksonville Center
02:06PM 30.2031 -84.0319 325° Northwest 447 514 43,000  Level Jacksonville Center
02:07PM 30.3108 -84.1172 326° Northwest 447 514 43,000  Level Jacksonville Center
02:08PM 30.4164 -84.1981 327° Northwest 453 521 43,000  Level Jacksonville Center
02:09PM 30.5283 -84.2864 326° Northwest 461 531 43,000  Level Jacksonville Center
02:10PM 30.6233 -84.3675 324° Northwest 468 539 43,000  Level Jacksonville Center
02:11PM 30.7331 -84.4539 326° Northwest 473 544 43,000  Level Jacksonville Center
02:12PM 30.8444 -84.5453 325° Northwest 478 550 43,000  Level Jacksonville Center
02:13PM 30.9542 -84.6319 326° Northwest 478 550 43,000  Level Jacksonville Center
02:14PM 31.0656 -84.7214 325° Northwest 478 550 43,000  Level Jacksonville Center
02:15PM 31.1750 -84.8083 326° Northwest 478 550 43,000  Level Jacksonville Center
02:18PM 31.4442 -85.0294 325° Northwest 476 548 43,000  Level Atlanta Center
02:19PM 31.5542 -85.1183 325° Northwest 476 548 43,000  Level Atlanta Center
02:20PM 31.6597 -85.2050 325° Northwest 476 548 43,000  Level Atlanta Center
02:21PM 31.7717 -85.2969 325° Northwest 476 548 43,000  Level Atlanta Center
02:22PM 31.8792 -85.3842 325° Northwest 476 548 43,000  Level Atlanta Center
02:23PM 31.9908 -85.4764 325° Northwest 476 548 43,000  Level Atlanta Center
02:24PM 32.0983 -85.5639 325° Northwest 481 554 43,000  Level Atlanta Center
02:25PM 32.2078 -85.6542 325° Northwest 481 554 43,000  Level Atlanta Center
02:26PM 32.3294 -85.7547 325° Northwest 481 554 43,000  Level Atlanta Center
02:27PM 32.4242 -85.8450 321° Northwest 486 559 43,000  Level Atlanta Center
02:28PM 32.5503 -85.9364 329° Northwest 486 559 43,000  Level Atlanta Center
02:29PM 32.6572 -86.0322 323° Northwest 486 559 43,000  Level Atlanta Center
02:30PM 32.7664 -86.1236 325° Northwest 486 559 43,000  Level Atlanta Center
02:31PM 32.8714 -86.2153 324° Northwest 486 559 43,000  Level Atlanta Center
02:32PM 32.9822 -86.3097 324° Northwest 486 559 43,100  Climbing Atlanta Center
02:33PM 33.0892 -86.4017 324° Northwest 480 552 43,000 -60 Descending Atlanta Center
02:34PM 33.1981 -86.4914 325° Northwest 480 552 43,000  Level Atlanta Center
02:35PM 33.2883 -86.5636 326° Northwest 480 552 43,000  Level Atlanta Center
02:36PM 33.4031 -86.6689 323° Northwest 480 552 43,000  Level Atlanta Center
02:37PM 33.5117 -86.7644 324° Northwest 480 552 43,000  Level Atlanta Center
02:38PM 33.6200 -86.8578 324° Northwest 474 545 43,000  Level Atlanta Center
02:39PM 33.7050 -86.9753 311° West 474 545 43,000  Level Atlanta Center
02:40PM 33.7683 -87.1200 298° West 475 547 43,000  Level Atlanta Center
02:42PM 33.9019 -87.4142 299° West 524 603 43,000  Level Memphis Center
02:43PM 33.9678 -87.5597 299° West 503 579 43,000  Level Memphis Center
02:44PM 34.0275 -87.7056 296° West 489 563 43,000  Level Memphis Center
02:45PM 34.0992 -87.8489 301° West 489 563 43,000  Level Memphis Center
02:46PM 34.1650 -88.0050 297° West 489 563 43,000  Level Memphis Center
02:47PM 34.2281 -88.1514 298° West 489 563 43,000  Level Memphis Center
02:48PM 34.2869 -88.2858 298° West 494 568 43,000  Level Memphis Center
02:49PM 34.3497 -88.4275 298° West 488 562 43,000  Level Memphis Center
02:50PM 34.4122 -88.5722 298° West 488 562 43,000  Level Memphis Center
02:51PM 34.4747 -88.7144 298° West 488 562 43,000  Level Memphis Center
02:52PM 34.5414 -88.8669 298° West 478 550 43,000  Level Memphis Center
02:53PM 34.6014 -89.0072 297° West 470 541 43,000  Level Memphis Center
02:54PM 34.6633 -89.1528 297° West 470 541 43,000  Level Memphis Center
02:55PM 34.7189 -89.2808 298° West 475 547 43,000 120 Level Memphis Center
02:56PM 34.7806 -89.4242 298° West 473 544 43,300 360 Climbing Memphis Center
02:57PM 34.8400 -89.5600 298° West 463 533 43,800 480 Climbing Memphis Center
02:58PM 34.9036 -89.7242 295° West 470 541 44,300 480 Climbing Memphis Center
02:58PM 34.9036 -89.7242 295° West 470 541 44,300 480 Level Memphis Center
02:59PM 34.9606 -89.8656 296° West 475 547 44,800 480 Climbing Memphis Center
02:59PM 34.9606 -89.8656 296° West 475 547 44,800 180 Level Memphis Center
03:00PM 35.0297 -90.0147 300° West 494 568 45,000 180 Climbing Memphis Center
03:00PM 35.0297 -90.0147 300° West 494 568 45,000  Level Memphis Center
03:01PM 35.0719 -90.1592 290° West 471 542 45,000  Level Memphis Center
03:01PM 35.0719 -90.1592 290° West 471 542 45,000  Level Memphis Center
03:02PM 35.1200 -90.3089 291° West 471 542 45,000  Level Memphis Center
03:02PM 35.1200 -90.3089 291° West 471 542 45,000  Level Memphis Center
03:03PM 35.1617 -90.4408 291° West 465 535 45,000  Level Memphis Center
03:03PM 35.1617 -90.4408 291° West 465 535 45,000  Level Memphis Center
03:04PM 35.2075 -90.5908 291° West 470 541 45,000  Level Memphis Center
03:04PM 35.2075 -90.5908 291° West 470 541 45,000  Level Memphis Center
03:05PM 35.2550 -90.7411 291° West 470 541 45,000  Level Memphis Center
03:05PM 35.2550 -90.7411 291° West 470 541 45,000  Level Memphis Center
03:06PM 35.3003 -90.8914 290° West 470 541 45,000  Level Memphis Center
03:06PM 35.3003 -90.8914 290° West 470 541 45,000  Level Memphis Center
03:07PM 35.3475 -91.0444 291° West 470 541 45,000  Level Memphis Center
03:07PM 35.3475 -91.0444 291° West 470 541 45,000  Level Memphis Center
03:08PM 35.4008 -91.2053 292° West 470 541 45,000  Level Memphis Center
03:08PM 35.4008 -91.2053 292° West 470 541 45,000  Level Memphis Center
03:09PM 35.4456 -91.3586 290° West 475 547 45,000  Level Memphis Center
03:09PM 35.4456 -91.3586 290° West 475 547 45,000  Level Memphis Center
03:10PM 35.4922 -91.5072 291° West 470 541 45,000  Level Memphis Center
03:10PM 35.4922 -91.5072 291° West 470 541 45,000  Level Memphis Center
03:11PM 35.5367 -91.6608 290° West 470 541 45,000  Level Memphis Center
03:11PM 35.5367 -91.6608 290° West 470 541 45,000  Level Memphis Center
03:12PM 35.5831 -91.8122 291° West 470 541 45,000  Level Memphis Center
03:12PM 35.5831 -91.8122 291° West 470 541 45,000  Level Memphis Center
03:13PM 35.6292 -91.9661 290° West 470 541 45,000  Level Memphis Center
03:13PM 35.6292 -91.9661 290° West 470 541 45,000  Level Memphis Center
03:14PM 35.6750 -92.1203 290° West 470 541 45,000  Level Memphis Center
03:14PM 35.6750 -92.1203 290° West 470 541 45,000  Level Memphis Center
03:15PM 35.7186 -92.2697 290° West 470 541 45,000  Level Memphis Center
03:15PM 35.7186 -92.2697 290° West 470 541 45,000  Level Memphis Center
03:16PM 35.7642 -92.4242 290° West 470 541 45,000  Level Memphis Center
03:16PM 35.7642 -92.4242 290° West 470 541 45,000  Level Memphis Center
03:17PM 35.8094 -92.5814 290° West 470 541 45,000  Level Memphis Center
03:17PM 35.8094 -92.5814 290° West 470 541 45,000  Level Memphis Center
03:18PM 35.8672 -92.7289 296° West 475 547 45,000  Level Memphis Center
03:18PM 35.8672 -92.7289 296° West 475 547 45,000  Level Memphis Center
03:19PM 35.9247 -92.8794 295° West 480 552 45,000  Level Memphis Center
03:19PM 35.9247 -92.8794 295° West 480 552 45,000  Level Memphis Center
03:20PM 35.9800 -93.0272 295° West 480 552 45,000  Level Memphis Center
03:20PM 35.9800 -93.0272 295° West 480 552 45,000  Level Memphis Center
03:21PM 36.0392 -93.1781 296° West 480 552 45,000  Level Memphis Center
03:21PM 36.0392 -93.1781 296° West 480 552 45,000  Level Memphis Center
03:22PM 36.0942 -93.3211 295° West 480 552 45,000  Level Memphis Center
03:22PM 36.0942 -93.3211 295° West 480 552 45,000  Level Memphis Center
03:23PM 36.1492 -93.4697 295° West 480 552 45,000  Level Memphis Center
03:23PM 36.1492 -93.4697 295° West 480 552 45,000  Level Memphis Center
03:24PM 36.2078 -93.6186 296° West 480 552 45,000  Level Memphis Center
03:24PM 36.2078 -93.6186 296° West 480 552 45,000  Level Memphis Center
03:25PM 36.2644 -93.7650 296° West 480 552 45,000  Level Memphis Center
03:25PM 36.2644 -93.7650 296° West 480 552 45,000  Level Memphis Center
03:26PM 36.3206 -93.9167 295° West 480 552 45,000  Level Memphis Center
03:26PM 36.3206 -93.9167 295° West 480 552 45,000  Level Memphis Center
03:27PM 36.3811 -94.0689 296° West 481 554 45,000  Level Kansas City Center
03:27PM 36.3811 -94.0689 296° West 481 554 45,000  Level Kansas City Center
03:28PM 36.4369 -94.2197 295° West 482 555 45,000  Level Kansas City Center
03:28PM 36.4369 -94.2197 295° West 482 555 45,000  Level Kansas City Center
03:29PM 36.4922 -94.3714 294° West 484 557 45,000  Level Kansas City Center
03:29PM 36.4922 -94.3714 294° West 484 557 45,000  Level Kansas City Center
03:30PM 36.5492 -94.5239 295° West 486 559 45,000  Level Kansas City Center
03:30PM 36.5492 -94.5239 295° West 486 559 45,000  Level Kansas City Center
03:31PM 36.6047 -94.6758 295° West 485 558 45,000  Level Kansas City Center
03:31PM 36.6047 -94.6758 295° West 485 558 45,000  Level Kansas City Center
03:32PM 36.6606 -94.8283 295° West 486 559 45,000  Level Kansas City Center
03:32PM 36.6606 -94.8283 295° West 486 559 45,000  Level Kansas City Center
03:33PM 36.7267 -95.0117 294° West 486 559 45,000  Level Kansas City Center
03:33PM 36.7267 -95.0117 294° West 486 559 45,000  Level Kansas City Center
03:34PM 36.7811 -95.1631 294° West 486 559 45,000  Level Kansas City Center
03:34PM 36.7811 -95.1631 294° West 486 559 45,000  Level Kansas City Center
03:35PM 36.8364 -95.3144 295° West 484 557 45,000  Level Kansas City Center
03:35PM 36.8364 -95.3144 295° West 484 557 45,000  Level Kansas City Center
03:36PM 36.8906 -95.4686 294° West 488 562 45,000  Level Kansas City Center
03:36PM 36.8906 -95.4686 294° West 488 562 45,000  Level Kansas City Center
03:37PM 36.9442 -95.6225 294° West 487 560 45,000  Level Kansas City Center
03:37PM 36.9442 -95.6225 294° West 487 560 45,000  Level Kansas City Center
03:38PM 37.0094 -95.8047 294° West 484 557 45,000  Level Kansas City Center
03:38PM 37.0094 -95.8047 294° West 484 557 45,000  Level Kansas City Center
03:39PM 37.0636 -95.9592 294° West 485 558 45,000  Level Kansas City Center
03:39PM 37.0636 -95.9592 294° West 485 558 45,000  Level Kansas City Center
03:40PM 37.1181 -96.1142 294° West 486 559 45,000  Level Kansas City Center
03:40PM 37.1181 -96.1142 294° West 486 559 45,000  Level Kansas City Center
03:41PM 37.1725 -96.2700 294° West 488 562 45,000  Level Kansas City Center
03:41PM 37.1725 -96.2700 294° West 488 562 45,000  Level Kansas City Center
03:42PM 37.2261 -96.4253 293° West 488 562 45,000  Level Kansas City Center
03:42PM 37.2261 -96.4253 293° West 488 562 45,000  Level Kansas City Center
03:49PM 37.5606 -97.4050 294° West 492 566 45,000  Level Kansas City Center
03:50PM 37.6125 -97.5617 293° West 486 559 45,000  Level Kansas City Center
03:51PM 37.6653 -97.7219 293° West 484 557 45,000  Level Kansas City Center
03:52PM 37.7281 -97.9100 293° West 484 557 45,000  Level Kansas City Center
03:53PM 37.7806 -98.0731 292° West 490 564 45,000  Level Kansas City Center
03:54PM 37.8356 -98.2369 293° West 490 564 45,000  Level Kansas City Center
03:55PM 37.8878 -98.3961 293° West 486 559 45,000  Level Kansas City Center
03:56PM 37.9386 -98.5556 292° West 487 560 45,000  Level Kansas City Center
03:57PM 37.9892 -98.7131 292° West 484 557 45,000  Level Kansas City Center
03:58PM 38.0411 -98.8739 292° West 488 562 45,000  Level Kansas City Center
03:59PM 38.0919 -99.0333 292° West 488 562 45,000  Level Kansas City Center
04:00PM 38.1528 -99.2250 292° West 489 563 45,000  Level Kansas City Center
04:01PM 38.2028 -99.3847 292° West 487 560 45,000  Level Kansas City Center
04:02PM 38.2522 -99.5442 292° West 487 560 45,000  Level Kansas City Center
04:03PM 38.3083 -99.7228 292° West 487 560 45,000  Level Kansas City Center
04:04PM 38.3556 -99.8781 291° West 491 565 45,000  Level Kansas City Center
04:05PM 38.4106 -100.0575 291° West 490 564 45,000  Level Kansas City Center
04:06PM 38.4572 -100.2122 291° West 489 563 45,000  Level Kansas City Center
04:07PM 38.5114 -100.3928 291° West 490 564 45,000  Level Kansas City Center
04:08PM 38.5578 -100.5472 291° West 489 563 45,000 120 Level Kansas City Center
04:09PM 38.6119 -100.7300 291° West 493 567 45,300 480 Climbing Kansas City Center
04:10PM 38.6561 -100.8806 291° West 482 555 46,100 780 Climbing Kansas City Center
04:11PM 38.7072 -101.0522 291° West 469 540 47,000 420 Climbing Kansas City Center
04:12PM 38.7492 -101.1986 290° West 462 532 47,000  Level Kansas City Center
04:14PM 38.8150 -101.4186 291° West 465 535 47,000  Level Denver Center
04:15PM 38.8586 -101.5700 290° West 473 544 47,000  Level Denver Center
04:16PM 38.9094 -101.7456 290° West 472 543 47,000  Level Denver Center
04:17PM 38.9453 -101.8722 290° West 476 548 47,000  Level Denver Center
04:18PM 39.0031 -102.0756 290° West 476 548 47,000  Level Denver Center
04:19PM 39.0472 -102.2278 291° West 476 548 47,000  Level Denver Center
04:20PM 39.0969 -102.4078 290° West 478 550 47,000  Level Denver Center
04:21PM 39.1397 -102.5606 290° West 476 548 47,000  Level Denver Center
04:22PM 39.1889 -102.7403 289° West 480 552 47,000  Level Denver Center
04:23PM 39.2364 -102.9128 290° West 479 551 47,000  Level Denver Center
04:24PM 39.2811 -103.0764 289° West 484 557 47,000  Level Denver Center
04:25PM 39.3247 -103.2394 289° West 482 555 47,000  Level Denver Center
04:26PM 39.3692 -103.4025 289° West 481 554 47,000  Level Denver Center
04:27PM 39.4119 -103.5650 289° West 480 552 47,000  Level Denver Center
04:28PM 39.4539 -103.7281 288° West 480 552 47,000  Level Denver Center
04:29PM 39.4586 -103.9386 272° West 488 562 47,000  Level Denver Center
04:30PM 39.4644 -104.1094 273° West 479 551 47,000  Level Denver Center
04:31PM 39.4703 -104.2806 273° West 475 547 47,000  Level Denver Center
04:32PM 39.4775 -104.4583 273° West 482 555 47,000  Level Denver Center
04:33PM 39.4842 -104.6469 273° West 485 558 47,000  Level Denver Center
04:34PM 39.4922 -104.8203 274° West 483 556 47,000  Level Denver Center
04:36PM 39.4997 -105.0075 273° West 484 557 47,000  Level Denver Center
04:37PM 39.5072 -105.1608 274° West 478 550 47,000  Level Denver Center
04:38PM 39.5181 -105.3675 274° West 483 556 47,000  Level Denver Center
04:39PM 39.5272 -105.5417 274° West 484 557 47,000  Level Denver Center
04:40PM 39.5389 -105.7139 275° West 480 552 47,000  Level Denver Center
04:41PM 39.5517 -105.8856 276° West 473 544 47,000  Level Denver Center
04:42PM 39.5636 -106.0592 275° West 486 559 47,000  Level Denver Center
04:43PM 39.5764 -106.2522 275° West 479 551 47,000  Level Denver Center
04:44PM 39.5911 -106.4219 276° West 474 545 47,000  Level Denver Center
04:45PM 39.6283 -106.5928 286° West 480 552 47,000  Level Denver Center
04:46PM 39.6692 -106.7758 286° West 477 549 47,000  Level Denver Center
04:47PM 39.6986 -106.9114 286° West 474 545 47,000  Level Denver Center
04:48PM 39.7406 -107.1069 286° West 473 544 47,000  Level Denver Center
04:49PM 39.7761 -107.2700 286° West 463 533 47,000  Level Denver Center
04:50PM 39.8094 -107.4275 285° West 469 540 47,000  Level Denver Center
04:51PM 39.8483 -107.6114 285° West 472 543 47,000  Level Denver Center
04:52PM 39.8814 -107.7692 285° West 474 545 47,000  Level Denver Center
04:53PM 39.9200 -107.9533 285° West 474 545 47,000  Level Denver Center
04:54PM 39.9536 -108.1119 286° West 474 545 47,000  Level Denver Center
04:55PM 39.9925 -108.2950 286° West 473 544 47,000  Level Denver Center
04:56PM 40.0231 -108.4531 284° West 474 545 47,000  Level Denver Center
04:57PM 40.0653 -108.6631 285° West 475 547 47,000  Level Denver Center
04:58PM 40.1011 -108.8478 284° West 475 547 47,000  Level Denver Center
05:00PM 40.1136 -109.0097 276° West 471 542 47,000 -600 Level Denver Center
05:01PM 40.1197 -109.2014 272° West 474 545 45,800 -1,620 Descending Denver Center
05:02PM 40.1253 -109.3725 272° West 490 564 43,700 -2,160 Descending Denver Center
05:03PM 40.1311 -109.5742 272° West 498 573 41,200 -2,280 Descending Salt Lake Center
05:04PM 40.1381 -109.7708 273° West 489 563 38,800 -2,280 Descending Salt Lake Center
05:05PM 40.1431 -109.9461 272° West 500 575 36,600 -2,340 Descending Salt Lake Center
05:06PM 40.1486 -110.1519 272° West 508 585 34,100 -2,280 Descending Salt Lake Center
05:07PM 40.1469 -110.3336 269° West 520 598 32,000 -2,220 Descending Salt Lake Center
05:08PM 40.1450 -110.5464 269° West 525 604 29,600 -2,100 Descending Salt Lake Center
05:09PM 40.1433 -110.7256 269° West 519 597 27,700 -2,040 Descending Salt Lake Center
05:10PM 40.1403 -110.9314 269° West 510 587 25,500 -2,040 Descending Salt Lake Center
05:11PM 40.1394 -111.1047 270° West 489 563 23,600 -1,860 Descending Salt Lake Center
05:12PM 40.1364 -111.2753 269° West 472 543 21,800 -1,800 Descending Salt Lake Center
05:13PM 40.1331 -111.4433 269° West 464 534 19,900 -1,800 Descending Salt Lake Center
05:14PM 40.1336 -111.5547 270° West 446 513 19,000 -900 Descending Salt Lake Center
05:14PM 40.1483 -111.5964 295° West 408 470 19,000  Level Salt Lake Center
05:14PM 40.1608 -111.6467 288° West 385 443 19,000 -120 Level Salt Lake Center
05:15PM 40.1939 -111.7192 301° West 376 433 18,900 -480 Descending Salt Lake Center
05:15PM 40.2047 -111.7581 290° West 372 428 18,600 -1,260 Descending Salt Lake Center
05:16PM 40.2406 -111.8439 299° West 380 437 17,600 -1,380 Descending Salt Lake Center
05:16PM 40.2533 -111.8933 289° West 379 436 17,100 -1,680 Descending Salt Lake Center
05:17PM 40.3258 -111.9869 315° West 369 425 15,600 -1,140 Descending Salt Lake Center
05:18PM 40.4019 -112.0358 334° Northwest 372 428 15,000 -840 Descending Salt Lake Center
05:18PM 40.4181 -112.0517 323° Northwest 370 426 14,800 -1,800 Descending Salt Lake Center
05:19PM 40.5044 -112.0617 355° North 381 438 13,200 -2,040 Descending Salt Lake Center
05:19PM 40.5361 -112.0711 347° North 382 440 12,600 -1,920 Descending Salt Lake Center
05:20PM 40.6286 -112.0822 355° North 364 419 11,000 -900 Descending Salt Lake Center
05:21PM 40.6964 -112.0853 358° North 311 358 11,000  Level Salt Lake Center
05:21PM 40.7122 -112.0906 346° North 284 327 11,000 -120 Level Salt Lake Center
05:22PM 40.7942 -112.0914 360° North 263 303 10,900 -900 Descending Salt Lake Center
05:23PM 40.8592 -112.0833 North 261 300 9,200 -2,100 Descending Salt Lake Center
05:24PM 40.9281 -112.0650 11° North 266 306 7,000 -2,220 Descending Salt Lake Center
05:24PM 40.9306 -112.0619 43° Northeast 264 304 7,000 -780 Level Salt Lake Center
05:25PM 40.9342 -111.9811 87° East 245 282 6,200 -840 Descending Salt Lake Center
05:25PM 40.9308 -111.9767 135° Southeast 249 287 6,200 -420 Level Salt Lake Center
05:26PM 40.8781 -111.9619 168° South 217 250 5,800 -540 Descending Salt Lake Center
05:26PM 40.8742 -111.9619 180° South 213 245 5,700 -1,020 Descending Salt Lake Center
05:27PM 40.8292 -111.9631 181° South 155 178 4,800 -900 Descending Salt Lake Center
05:27PM 40.8303 -111.9622 30° Northeast 172 198 4,800 -600 Level Salt Lake Center
05:29PM 40.7950 -111.9619 180° South 133 153 4,200 -600 Descending Salt Lake Center
05:31PM 40.7833 -111.9667 201° Southwest  Level FlightAware Approximate